createdAt,value
2023-02-23T00:00:01.131Z,100590.25
2023-02-23T00:03:01.583Z,100593.46
2023-02-23T00:05:30.493Z,100595.55
2023-02-23T00:08:18.097Z,100591.76
2023-02-23T00:11:07.198Z,100585.20
2023-02-23T00:13:56.904Z,100584.94
2023-02-23T00:16:45.657Z,100579.42
2023-02-23T00:19:37.947Z,100579.34
2023-02-23T00:22:16.553Z,100579.26
2023-02-23T00:25:07.863Z,100579.38
2023-02-23T00:27:55.709Z,100578.02
2023-02-23T00:30:24.074Z,100580.73
2023-02-23T00:33:01.995Z,100581.88
2023-02-23T00:35:31.794Z,100575.37
2023-02-23T00:37:59.059Z,100572.95
2023-02-23T00:40:46.988Z,100570.54
2023-02-23T00:43:18.793Z,100570.16
2023-02-23T00:46:08.767Z,100565.89
2023-02-23T00:48:36.599Z,100559.25
2023-02-23T00:51:27.047Z,100562.11
2023-02-23T00:54:07.781Z,100561.10
2023-02-23T00:56:35.636Z,100554.92
2023-02-23T00:59:23.172Z,100551.09
2023-02-23T01:02:11.150Z,100553.66
2023-02-23T01:04:58.724Z,100547.69
2023-02-23T01:07:29.278Z,100542.36
2023-02-23T01:10:01.225Z,100546.26
2023-02-23T01:12:41.470Z,100541.25
2023-02-23T01:15:29.328Z,100549.23
2023-02-23T01:18:18.311Z,100552.25
2023-02-23T01:21:07.123Z,100546.64
2023-02-23T01:23:35.401Z,100540.68
2023-02-23T01:26:25.504Z,100541.25
2023-02-23T01:28:57.249Z,100542.14
2023-02-23T01:31:31.115Z,100543.58
2023-02-23T01:34:09.572Z,100543.09
2023-02-23T01:36:49.745Z,100539.99
2023-02-23T01:39:37.491Z,100533.85
2023-02-23T01:42:25.801Z,100535.38
2023-02-23T01:45:27.805Z,100534.52
2023-02-23T01:48:17.912Z,100530.39
2023-02-23T01:51:01.188Z,100524.89
2023-02-23T01:53:35.413Z,100528.30
2023-02-23T01:56:11.772Z,100525.55
2023-02-23T01:58:45.837Z,100522.78
2023-02-23T02:01:16.651Z,100526.64
2023-02-23T02:04:02.100Z,100520.45
2023-02-23T02:06:54.134Z,100515.13
2023-02-23T02:09:38.176Z,100517.68
2023-02-23T02:12:26.630Z,100511.23
2023-02-23T02:15:07.199Z,100513.30
2023-02-23T02:17:48.407Z,100512.80
2023-02-23T02:20:52.481Z,100511.59
2023-02-23T02:23:57.263Z,100513.05
2023-02-23T02:27:01.953Z,100511.84
2023-02-23T02:30:16.207Z,100512.19
2023-02-23T02:33:20.588Z,100508.13
2023-02-23T02:36:41.127Z,100510.77
2023-02-23T02:39:24.183Z,100508.75
2023-02-23T02:42:32.682Z,100508.75
2023-02-23T02:45:12.518Z,100507.54
2023-02-23T02:47:47.703Z,100506.13
2023-02-23T02:50:42.872Z,100509.19
2023-02-23T02:53:41.355Z,100510.95
2023-02-23T02:56:13.439Z,100510.09
2023-02-23T02:58:44.271Z,100508.75
2023-02-23T03:01:33.541Z,100510.99
2023-02-23T03:04:42.484Z,100506.74
2023-02-23T03:07:39.089Z,100503.70
2023-02-23T03:10:33.318Z,100504.42
2023-02-23T03:13:33.310Z,100504.11
2023-02-23T03:16:32.714Z,100505.30
2023-02-23T03:19:34.797Z,100506.70
2023-02-23T03:22:45.350Z,100506.67
2023-02-23T03:26:00.429Z,100505.79
2023-02-23T03:28:55.407Z,100505.77
2023-02-23T03:31:54.562Z,100505.72
2023-02-23T03:34:51.102Z,100505.55
2023-02-23T03:37:45.640Z,100504.02
2023-02-23T03:40:45.749Z,100506.75
2023-02-23T03:43:45.308Z,100508.34
2023-02-23T03:46:42.857Z,100508.55
2023-02-23T03:49:29.983Z,100508.95
2023-02-23T03:52:22.727Z,100509.50
2023-02-23T03:55:13.011Z,100507.99
2023-02-23T03:58:20.302Z,100511.13
2023-02-23T04:01:09.247Z,100512.56
2023-02-23T04:04:17.994Z,100511.09
2023-02-23T04:07:26.010Z,100514.71
2023-02-23T04:10:14.657Z,100514.58
2023-02-23T04:13:14.817Z,100515.66
2023-02-23T04:15:44.420Z,100515.20
2023-02-23T04:18:19.068Z,100508.05
2023-02-23T04:20:58.342Z,100513.05
2023-02-23T04:23:26.530Z,100510.53
2023-02-23T04:25:59.756Z,100511.77
2023-02-23T04:28:37.937Z,100503.62
2023-02-23T04:31:26.222Z,100499.90
2023-02-23T04:33:53.746Z,100498.23
2023-02-23T04:36:24.993Z,100497.71
2023-02-23T04:38:55.933Z,100496.51
2023-02-23T04:41:23.188Z,100496.52
2023-02-23T04:43:50.528Z,100494.98
2023-02-23T04:46:20.482Z,100491.60
2023-02-23T04:48:56.591Z,100493.48
2023-02-23T04:51:31.017Z,100489.92
2023-02-23T04:54:18.566Z,100491.95
2023-02-23T04:57:06.703Z,100492.64
2023-02-23T04:59:45.311Z,100497.27
2023-02-23T05:02:21.828Z,100496.77
2023-02-23T05:05:11.217Z,100490.78
2023-02-23T05:07:58.992Z,100494.35
2023-02-23T05:10:29.213Z,100490.75
2023-02-23T05:13:01.444Z,100499.42
2023-02-23T05:15:48.863Z,100493.61
2023-02-23T05:18:19.387Z,100490.36
2023-02-23T05:21:02.975Z,100487.10
2023-02-23T05:23:36.830Z,100489.52
2023-02-23T05:26:06.043Z,100494.44
2023-02-23T05:28:43.297Z,100487.40
2023-02-23T05:31:11.325Z,100486.70
2023-02-23T05:33:46.014Z,100489.45
2023-02-23T05:36:17.929Z,100484.52
2023-02-23T05:38:49.434Z,100485.04
2023-02-23T05:41:29.802Z,100483.67
2023-02-23T05:44:17.977Z,100488.14
2023-02-23T05:46:48.612Z,100489.19
2023-02-23T05:49:19.653Z,100495.34
2023-02-23T05:52:07.502Z,100496.73
2023-02-23T05:54:55.550Z,100492.65
2023-02-23T05:57:25.541Z,100492.86
2023-02-23T05:59:52.797Z,100493.39
2023-02-23T06:02:20.624Z,100495.12
2023-02-23T06:04:51.298Z,100495.52
2023-02-23T06:07:22.040Z,100494.36
2023-02-23T06:09:52.479Z,100498.15
2023-02-23T06:12:24.070Z,100499.58
2023-02-23T06:14:53.622Z,100501.34
2023-02-23T06:17:24.663Z,100502.23
2023-02-23T06:19:55.296Z,100505.05
2023-02-23T06:22:28.175Z,100503.11
2023-02-23T06:25:12.746Z,100504.41
2023-02-23T06:27:51.354Z,100503.17
2023-02-23T06:30:20.200Z,100508.25
2023-02-23T06:32:47.924Z,100509.41
2023-02-23T06:35:18.393Z,100507.69
2023-02-23T06:38:06.477Z,100509.70
2023-02-23T06:40:47.361Z,100512.79
2023-02-23T06:43:34.779Z,100514.85
2023-02-23T06:46:06.554Z,100515.21
2023-02-23T06:48:57.973Z,100510.60
2023-02-23T06:51:28.688Z,100510.58
2023-02-23T06:53:56.771Z,100507.39
2023-02-23T06:56:26.880Z,100507.95
2023-02-23T06:59:04.374Z,100505.00
2023-02-23T07:01:31.682Z,100506.16
2023-02-23T07:04:05.671Z,100507.78
2023-02-23T07:06:35.347Z,100510.23
2023-02-23T07:09:05.719Z,100502.24
2023-02-23T07:11:34.062Z,100505.72
2023-02-23T07:14:26.862Z,100506.19
2023-02-23T07:16:58.616Z,100508.48
2023-02-23T07:19:42.393Z,100507.19
2023-02-23T07:22:30.745Z,100502.13
2023-02-23T07:25:18.328Z,100504.62
2023-02-23T07:27:57.099Z,100495.50
2023-02-23T07:30:45.223Z,100494.38
2023-02-23T07:33:32.915Z,100495.02
2023-02-23T07:36:21.007Z,100491.70
2023-02-23T07:39:02.437Z,100496.05
2023-02-23T07:41:34.973Z,100489.79
2023-02-23T07:44:08.456Z,100492.81
2023-02-23T07:46:46.724Z,100481.96
2023-02-23T07:49:14.559Z,100482.20
2023-02-23T07:51:42.220Z,100478.98
2023-02-23T07:54:13.724Z,100475.36
2023-02-23T07:56:54.241Z,100467.32
2023-02-23T07:59:42.051Z,100460.05
2023-02-23T08:02:30.442Z,100454.02
2023-02-23T08:05:00.638Z,100456.32
2023-02-23T08:07:48.097Z,100444.24
2023-02-23T08:10:26.843Z,100435.95
2023-02-23T08:13:07.144Z,100437.33
2023-02-23T08:15:34.744Z,100442.06
2023-02-23T08:18:12.940Z,100436.39
2023-02-23T08:20:40.274Z,100438.00
2023-02-23T08:23:18.486Z,100430.58
2023-02-23T08:25:58.180Z,100425.11
2023-02-23T08:28:46.835Z,100430.25
2023-02-23T08:31:26.495Z,100426.73
2023-02-23T08:33:54.487Z,100428.59
2023-02-23T08:36:45.625Z,100436.33
2023-02-23T08:39:34.181Z,100431.35
2023-02-23T08:42:01.612Z,100425.77
2023-02-23T08:44:28.896Z,100417.73
2023-02-23T08:46:58.630Z,100421.95
2023-02-23T08:49:27.602Z,100421.33
2023-02-23T08:51:55.122Z,100416.86
2023-02-23T08:54:23.021Z,100411.04
2023-02-23T08:56:50.813Z,100412.02
2023-02-23T08:59:18.569Z,100414.13
2023-02-23T09:02:07.666Z,100406.80
2023-02-23T09:04:45.175Z,100417.88
2023-02-23T09:07:18.264Z,100423.13
2023-02-23T09:09:45.572Z,100423.80
2023-02-23T09:12:15.776Z,100413.20
2023-02-23T09:14:42.913Z,100407.18
2023-02-23T09:17:23.071Z,100398.45
2023-02-23T09:20:13.897Z,100392.38
2023-02-23T09:22:52.272Z,100392.73
2023-02-23T09:25:23.167Z,100384.11
2023-02-23T09:28:13.229Z,100384.37
2023-02-23T09:30:45.129Z,100374.84
2023-02-23T09:33:32.683Z,100377.27
2023-02-23T09:36:16.587Z,100375.69
2023-02-23T09:38:57.942Z,100370.55
2023-02-23T09:42:09.650Z,100368.94
2023-02-23T09:45:14.270Z,100359.83
2023-02-23T09:48:08.364Z,100360.31
2023-02-23T09:50:50.226Z,100362.11
2023-02-23T09:53:40.108Z,100365.27
2023-02-23T09:56:24.856Z,100368.02
2023-02-23T09:59:04.203Z,100352.92
2023-02-23T10:01:46.531Z,100353.11
2023-02-23T10:04:39.941Z,100345.61
2023-02-23T10:07:35.988Z,100349.79
2023-02-23T10:10:30.106Z,100355.30
2023-02-23T10:13:05.862Z,100336.47
2023-02-23T10:15:59.859Z,100338.98
2023-02-23T10:18:48.244Z,100343.92
2023-02-23T10:21:35.769Z,100333.17
2023-02-23T10:24:12.772Z,100320.71
2023-02-23T10:27:06.180Z,100332.39
2023-02-23T10:29:42.743Z,100336.67
2023-02-23T10:32:39.252Z,100326.71
2023-02-23T10:35:29.483Z,100322.65
2023-02-23T10:38:02.305Z,100317.98
2023-02-23T10:40:33.201Z,100303.31
2023-02-23T10:43:13.021Z,100307.27
2023-02-23T10:45:44.840Z,100303.62
2023-02-23T10:48:26.168Z,100310.48
2023-02-23T10:51:00.538Z,100316.27
2023-02-23T10:53:40.757Z,100293.83
2023-02-23T10:56:22.111Z,100296.77
2023-02-23T10:59:01.354Z,100277.55
2023-02-23T11:02:01.078Z,100273.89
2023-02-23T11:04:32.936Z,100271.77
2023-02-23T11:07:16.612Z,100262.45
2023-02-23T11:09:55.927Z,100266.20
2023-02-23T11:12:28.543Z,100260.26
2023-02-23T11:15:49.282Z,100259.64
2023-02-23T11:18:30.006Z,100254.14
2023-02-23T11:21:13.950Z,100253.86
2023-02-23T11:23:54.527Z,100248.55
2023-02-23T11:26:45.102Z,100247.73
2023-02-23T11:29:36.413Z,100239.04
2023-02-23T11:32:10.391Z,100239.35
2023-02-23T11:35:31.560Z,100229.08
2023-02-23T11:38:27.775Z,100225.73
2023-02-23T11:41:26.047Z,100226.36
2023-02-23T11:44:23.537Z,100216.52
2023-02-23T11:47:04.564Z,100219.39
2023-02-23T11:49:39.811Z,100219.08
2023-02-23T11:52:16.131Z,100216.23
2023-02-23T11:55:08.509Z,100206.11
2023-02-23T11:57:49.503Z,100210.20
2023-02-23T12:00:29.035Z,100198.67
2023-02-23T12:03:25.997Z,100196.65
2023-02-23T12:05:59.418Z,100194.16
2023-02-23T12:08:51.830Z,100182.71
2023-02-23T12:11:46.578Z,100180.48
2023-02-23T12:14:33.459Z,100170.84
2023-02-23T12:17:17.554Z,100172.42
2023-02-23T12:20:12.394Z,100167.69
2023-02-23T12:23:04.179Z,100174.27
2023-02-23T12:25:49.044Z,100156.71
2023-02-23T12:28:34.517Z,100159.27
2023-02-23T12:31:30.108Z,100157.19
2023-02-23T12:34:24.236Z,100147.52
2023-02-23T12:36:59.581Z,100145.59
2023-02-23T12:39:52.306Z,100141.27
2023-02-23T12:42:26.062Z,100155.77
2023-02-23T12:44:58.281Z,100136.55
2023-02-23T12:47:42.076Z,100127.94
2023-02-23T12:50:28.943Z,100134.67
2023-02-23T12:53:23.276Z,100126.66
2023-02-23T12:56:24.630Z,100120.48
2023-02-23T12:59:36.174Z,100122.41
2023-02-23T13:02:31.617Z,100109.98
2023-02-23T13:05:28.606Z,100105.66
2023-02-23T13:08:34.844Z,100106.74
2023-02-23T13:11:36.875Z,100104.56
2023-02-23T13:14:15.087Z,100107.70
2023-02-23T13:17:09.391Z,100103.80
2023-02-23T13:19:49.858Z,100086.25
2023-02-23T13:22:43.516Z,100086.22
2023-02-23T13:25:41.853Z,100079.61
2023-02-23T13:28:40.751Z,100073.90
2023-02-23T13:31:25.056Z,100062.34
2023-02-23T13:34:18.770Z,100060.52
2023-02-23T13:37:10.616Z,100063.92
2023-02-23T13:40:03.754Z,100060.13
2023-02-23T13:42:50.167Z,100056.16
2023-02-23T13:45:49.968Z,100055.83
2023-02-23T13:48:56.816Z,100045.13
2023-02-23T13:51:48.435Z,100051.48
2023-02-23T13:54:38.052Z,100044.79
2023-02-23T13:57:28.543Z,100039.83
2023-02-23T14:00:17.280Z,100032.48
2023-02-23T14:03:05.838Z,100024.20
2023-02-23T14:05:57.866Z,100030.75
2023-02-23T14:08:47.435Z,100027.85
2023-02-23T14:11:54.811Z,100017.53
2023-02-23T14:14:44.607Z,100017.86
2023-02-23T14:18:07.399Z,100013.41
2023-02-23T14:20:55.401Z,100009.98
2023-02-23T14:24:03.460Z,100006.70
2023-02-23T14:27:34.190Z,100012.03
2023-02-23T14:30:29.306Z,99999.15
2023-02-23T14:33:21.273Z,99996.73
2023-02-23T14:36:45.719Z,100000.35
2023-02-23T14:39:36.030Z,99987.19
2023-02-23T14:42:28.221Z,99984.92
2023-02-23T14:44:56.923Z,99978.36
2023-02-23T14:47:29.269Z,99978.34
2023-02-23T14:50:25.767Z,99976.26
2023-02-23T14:52:58.823Z,99976.79
2023-02-23T14:55:46.675Z,99972.06
2023-02-23T14:58:30.223Z,99976.08
2023-02-23T15:01:07.654Z,99973.79
2023-02-23T15:03:35.154Z,99965.05
2023-02-23T15:06:06.588Z,99965.27
2023-02-23T15:08:54.319Z,99963.76
2023-02-23T15:11:44.051Z,99959.55
2023-02-23T15:14:28.136Z,99959.11
2023-02-23T15:17:20.823Z,99954.18
2023-02-23T15:20:14.883Z,99958.05
2023-02-23T15:23:07.150Z,99944.84
2023-02-23T15:26:07.737Z,99940.59
2023-02-23T15:28:57.132Z,99938.42
2023-02-23T15:31:37.079Z,99931.95
2023-02-23T15:34:04.518Z,99924.40
2023-02-23T15:36:39.162Z,99922.88
2023-02-23T15:39:15.536Z,99920.45
2023-02-23T15:41:54.302Z,99916.72
2023-02-23T15:44:27.587Z,99920.39
2023-02-23T15:47:02.732Z,99918.73
2023-02-23T15:49:42.143Z,99917.41
2023-02-23T15:52:35.583Z,99913.53
2023-02-23T15:55:28.161Z,99908.27
2023-02-23T15:58:15.971Z,99907.29
2023-02-23T16:01:10.809Z,99901.64
2023-02-23T16:04:04.102Z,99901.18
2023-02-23T16:06:57.293Z,99896.59
2023-02-23T16:09:52.080Z,99895.80
2023-02-23T16:12:41.394Z,99898.91
2023-02-23T16:15:29.802Z,99899.46
2023-02-23T16:18:17.258Z,99894.86
2023-02-23T16:21:06.173Z,99895.09
2023-02-23T16:23:54.673Z,99893.93
2023-02-23T16:26:47.365Z,99901.87
2023-02-23T16:29:41.717Z,99900.02
2023-02-23T16:32:38.080Z,99898.35
2023-02-23T16:35:25.649Z,99901.48
2023-02-23T16:38:12.876Z,99898.94
2023-02-23T16:41:01.079Z,99897.23
2023-02-23T16:43:51.500Z,99890.53
2023-02-23T16:46:58.176Z,99890.05
2023-02-23T16:49:37.491Z,99887.50
2023-02-23T16:52:20.008Z,99882.89
2023-02-23T16:55:08.175Z,99881.02
2023-02-23T16:57:58.801Z,99872.64
2023-02-23T17:00:37.408Z,99870.06
2023-02-23T17:03:21.462Z,99869.07
2023-02-23T17:06:09.903Z,99860.52
2023-02-23T17:08:58.385Z,99856.40
2023-02-23T17:11:39.136Z,99850.08
2023-02-23T17:14:06.701Z,99851.48
2023-02-23T17:16:54.335Z,99853.91
2023-02-23T17:19:43.062Z,99848.77
2023-02-23T17:22:30.918Z,99851.36
2023-02-23T17:25:18.790Z,99853.44
2023-02-23T17:27:57.181Z,99850.37
2023-02-23T17:30:39.397Z,99853.48
2023-02-23T17:33:28.365Z,99852.47
2023-02-23T17:36:09.167Z,99842.88
2023-02-23T17:38:58.920Z,99842.88
2023-02-23T17:41:46.643Z,99838.10
2023-02-23T17:44:34.686Z,99831.73
2023-02-23T17:47:02.342Z,99824.20
2023-02-23T17:49:41.996Z,99815.11
2023-02-23T17:52:30.063Z,99814.46
2023-02-23T17:55:19.149Z,99806.42
2023-02-23T17:58:06.689Z,99805.92
2023-02-23T18:00:56.803Z,99798.56
2023-02-23T18:03:33.465Z,99801.84
2023-02-23T18:06:21.040Z,99796.86
2023-02-23T18:09:08.430Z,99789.67
2023-02-23T18:11:56.852Z,99785.39
2023-02-23T18:14:43.068Z,99781.46
2023-02-23T18:17:10.480Z,99775.98
2023-02-23T18:19:37.903Z,99770.66
2023-02-23T18:22:08.457Z,99770.50
2023-02-23T18:24:45.772Z,99776.19
2023-02-23T18:27:33.170Z,99760.41
2023-02-23T18:30:04.164Z,99756.48
2023-02-23T18:32:31.391Z,99752.88
2023-02-23T18:35:19.276Z,99747.93
2023-02-23T18:38:10.332Z,99752.59
2023-02-23T18:40:58.992Z,99744.20
2023-02-23T18:43:46.684Z,99743.52
2023-02-23T18:46:34.744Z,99734.77
2023-02-23T18:49:13.241Z,99732.56
2023-02-23T18:52:00.637Z,99728.14
2023-02-23T18:54:26.900Z,99728.33
2023-02-23T18:56:52.497Z,99732.44
2023-02-23T18:59:38.596Z,99726.46
2023-02-23T19:02:25.342Z,99725.79
2023-02-23T19:05:04.113Z,99717.21
2023-02-23T19:07:49.923Z,99710.89
2023-02-23T19:10:24.545Z,99703.19
2023-02-23T19:13:10.534Z,99703.38
2023-02-23T19:15:59.058Z,99697.05
2023-02-23T19:18:44.819Z,99697.06
2023-02-23T19:21:13.219Z,99699.46
2023-02-23T19:24:01.237Z,99694.32
2023-02-23T19:26:47.125Z,99690.88
2023-02-23T19:29:32.753Z,99685.06
2023-02-23T19:31:58.917Z,99684.90
2023-02-23T19:34:34.755Z,99681.14
2023-02-23T19:37:02.084Z,99681.49
2023-02-23T19:39:30.168Z,99670.17
2023-02-23T19:41:55.882Z,99672.92
2023-02-23T19:44:21.700Z,99666.93
2023-02-23T19:46:47.345Z,99662.32
2023-02-23T19:49:16.769Z,99656.66
2023-02-23T19:52:02.752Z,99659.41
2023-02-23T19:54:28.814Z,99649.13
2023-02-23T19:56:56.352Z,99652.23
2023-02-23T19:59:23.386Z,99644.34
2023-02-23T20:01:51.631Z,99639.73
2023-02-23T20:04:17.273Z,99640.23
2023-02-23T20:06:47.246Z,99637.34
2023-02-23T20:09:13.001Z,99637.52
2023-02-23T20:11:38.709Z,99631.02
2023-02-23T20:14:05.476Z,99633.08
2023-02-23T20:16:31.109Z,99630.36
2023-02-23T20:19:07.891Z,99624.20
2023-02-23T20:21:33.708Z,99626.59
2023-02-23T20:23:59.855Z,99616.84
2023-02-23T20:26:38.328Z,99615.31
2023-02-23T20:29:24.050Z,99610.70
2023-02-23T20:31:52.653Z,99607.30
2023-02-23T20:34:18.848Z,99601.80
2023-02-23T20:36:53.870Z,99596.17
2023-02-23T20:39:19.766Z,99593.80
2023-02-23T20:41:45.813Z,99593.81
2023-02-23T20:44:12.002Z,99588.01
2023-02-23T20:46:38.001Z,99578.60
2023-02-23T20:49:03.936Z,99576.40
2023-02-23T20:51:29.738Z,99570.23
2023-02-23T20:54:04.960Z,99567.85
2023-02-23T20:56:40.139Z,99562.55
2023-02-23T20:59:11.271Z,99560.34
2023-02-23T21:01:57.480Z,99553.67
2023-02-23T21:04:23.626Z,99548.22
2023-02-23T21:06:49.514Z,99538.80
2023-02-23T21:09:18.583Z,99539.52
2023-02-23T21:12:04.912Z,99536.09
2023-02-23T21:14:30.831Z,99536.27
2023-02-23T21:17:17.251Z,99535.94
2023-02-23T21:19:55.987Z,99534.41
2023-02-23T21:22:42.187Z,99532.70
2023-02-23T21:25:19.599Z,99524.50
2023-02-23T21:27:45.198Z,99514.73
2023-02-23T21:30:16.220Z,99511.65
2023-02-23T21:32:45.211Z,99517.84
2023-02-23T21:35:31.725Z,99505.17
2023-02-23T21:38:10.856Z,99498.85
2023-02-23T21:40:46.812Z,99494.23
2023-02-23T21:43:22.295Z,99491.98
2023-02-23T21:45:49.292Z,99483.95
2023-02-23T21:48:25.945Z,99486.02
2023-02-23T21:50:51.727Z,99476.60
2023-02-23T21:53:22.403Z,99477.10
2023-02-23T21:56:11.830Z,99469.05
2023-02-23T21:58:42.483Z,99466.98
2023-02-23T22:01:15.319Z,99462.52
2023-02-23T22:03:45.912Z,99456.87
2023-02-23T22:06:32.675Z,99450.02
2023-02-23T22:09:00.920Z,99445.06
2023-02-23T22:11:28.078Z,99443.02
2023-02-23T22:14:06.796Z,99436.52
2023-02-23T22:16:33.612Z,99434.97
2023-02-23T22:19:08.820Z,99433.59
2023-02-23T22:21:44.494Z,99431.52
2023-02-23T22:24:12.011Z,99430.15
2023-02-23T22:26:39.425Z,99426.22
2023-02-23T22:29:05.499Z,99421.42
2023-02-23T22:31:52.035Z,99418.84
2023-02-23T22:34:18.401Z,99413.50
2023-02-23T22:36:48.638Z,99416.05
2023-02-23T22:39:19.106Z,99411.41
2023-02-23T22:41:45.358Z,99405.75
2023-02-23T22:44:13.734Z,99402.48
2023-02-23T22:46:50.112Z,99399.52
2023-02-23T22:49:30.871Z,99398.67
2023-02-23T22:51:57.000Z,99396.44
2023-02-23T22:54:24.569Z,99391.98
2023-02-23T22:57:00.659Z,99394.73
2023-02-23T22:59:28.696Z,99389.40
2023-02-23T23:02:16.025Z,99387.01
2023-02-23T23:04:47.830Z,99384.42
2023-02-23T23:07:34.275Z,99380.65
2023-02-23T23:10:03.489Z,99373.79
2023-02-23T23:12:31.507Z,99367.45
2023-02-23T23:15:01.574Z,99363.48
2023-02-23T23:17:31.477Z,99357.84
2023-02-23T23:19:57.703Z,99355.79
2023-02-23T23:22:26.040Z,99349.96
2023-02-23T23:24:51.695Z,99344.32
2023-02-23T23:27:21.725Z,99343.82
2023-02-23T23:29:48.633Z,99341.41
2023-02-23T23:32:18.129Z,99338.66
2023-02-23T23:35:11.325Z,99338.30
2023-02-23T23:37:41.117Z,99336.92
2023-02-23T23:40:18.675Z,99333.14
2023-02-23T23:42:46.156Z,99329.52
2023-02-23T23:45:13.658Z,99325.04
2023-02-23T23:47:52.439Z,99322.59
2023-02-23T23:50:19.072Z,99319.46
2023-02-23T23:52:45.756Z,99319.27
2023-02-23T23:55:15.593Z,99311.35
2023-02-23T23:57:52.353Z,99307.35
